createdAt,value
2019-05-23T00:02:39.685Z,12.00
2019-05-23T00:05:14.621Z,11.08
2019-05-23T00:07:44.760Z,11.90
2019-05-23T00:10:19.319Z,12.00
2019-05-23T00:12:59.326Z,11.38
2019-05-23T00:15:32.610Z,11.90
2019-05-23T00:18:03.867Z,12.45
2019-05-23T00:20:33.733Z,12.30
2019-05-23T00:23:04.739Z,12.43
2019-05-23T00:25:34.943Z,12.50
2019-05-23T00:28:05.622Z,11.03
2019-05-23T00:30:57.695Z,11.60
2019-05-23T00:33:31.724Z,12.28
2019-05-23T00:36:01.579Z,12.50
2019-05-23T00:38:32.220Z,11.08
2019-05-23T00:41:02.176Z,12.03
2019-05-23T00:43:32.483Z,11.57
2019-05-23T00:46:02.541Z,12.53
2019-05-23T00:48:31.000Z,10.90
2019-05-23T00:51:04.999Z,11.18
2019-05-23T00:53:34.290Z,12.15
2019-05-23T00:56:03.927Z,11.57
2019-05-23T00:58:33.742Z,11.60
2019-05-23T01:01:02.226Z,11.65
2019-05-23T01:03:39.319Z,11.75
2019-05-23T01:06:08.411Z,12.65
2019-05-23T01:08:37.589Z,11.40
2019-05-23T01:11:07.483Z,12.28
2019-05-23T01:13:36.143Z,11.05
2019-05-23T01:16:04.629Z,10.85
2019-05-23T01:18:33.500Z,11.48
2019-05-23T01:21:21.311Z,12.10
2019-05-23T01:23:55.681Z,11.93
2019-05-23T01:26:25.298Z,11.70
2019-05-23T01:28:54.411Z,12.00
2019-05-23T01:31:24.826Z,11.45
2019-05-23T01:33:54.815Z,11.80
2019-05-23T01:36:23.594Z,11.00
2019-05-23T01:38:52.583Z,12.00
2019-05-23T01:41:22.218Z,10.20
2019-05-23T01:43:52.831Z,11.55
2019-05-23T01:46:21.746Z,11.80
2019-05-23T01:48:51.050Z,11.28
2019-05-23T01:51:20.917Z,10.85
2019-05-23T01:53:50.200Z,11.40
2019-05-23T01:56:18.419Z,10.88
2019-05-23T01:58:46.923Z,10.80
2019-05-23T02:01:16.154Z,11.10
2019-05-23T02:03:46.683Z,11.53
2019-05-23T02:06:14.881Z,12.40
2019-05-23T02:08:43.056Z,11.78
2019-05-23T02:11:11.791Z,10.95
2019-05-23T02:13:39.596Z,13.32
2019-05-23T02:16:07.310Z,11.20
2019-05-23T02:18:36.168Z,11.03
2019-05-23T02:21:05.194Z,11.22
2019-05-23T02:23:34.797Z,11.80
2019-05-23T02:26:04.112Z,12.45
2019-05-23T02:28:32.310Z,12.50
2019-05-23T02:31:01.538Z,12.28
2019-05-23T02:33:29.675Z,12.35
2019-05-23T02:35:58.188Z,12.70
2019-05-23T02:38:54.723Z,12.60
2019-05-23T02:41:49.404Z,12.93
2019-05-23T02:44:24.038Z,12.07
2019-05-23T02:47:11.867Z,12.70
2019-05-23T02:49:43.694Z,10.78
2019-05-23T02:52:26.988Z,11.63
2019-05-23T02:54:57.328Z,11.78
2019-05-23T02:57:26.059Z,13.03
2019-05-23T03:00:03.052Z,12.43
2019-05-23T03:02:44.875Z,13.28
2019-05-23T03:05:16.931Z,13.43
2019-05-23T03:07:46.150Z,13.70
2019-05-23T03:10:19.086Z,13.65
2019-05-23T03:12:52.241Z,15.60
2019-05-23T03:15:24.147Z,12.40
2019-05-23T03:17:55.036Z,14.58
2019-05-23T03:20:26.159Z,13.30
2019-05-23T03:23:11.941Z,13.20
2019-05-23T03:26:20.151Z,13.78
2019-05-23T03:28:49.469Z,13.62
2019-05-23T03:31:41.591Z,13.25
2019-05-23T03:34:13.120Z,12.55
2019-05-23T03:36:43.463Z,14.78
2019-05-23T03:39:12.241Z,14.50
2019-05-23T03:41:41.004Z,14.47
2019-05-23T03:44:09.488Z,15.88
2019-05-23T03:46:43.892Z,13.43
2019-05-23T03:49:14.282Z,12.37
2019-05-23T03:51:44.217Z,13.43
2019-05-23T03:54:22.478Z,12.75
2019-05-23T03:56:53.678Z,14.30
2019-05-23T03:59:24.286Z,12.20
2019-05-23T04:01:55.436Z,13.20
2019-05-23T04:04:23.715Z,11.93
2019-05-23T04:06:54.121Z,13.08
2019-05-23T04:09:22.441Z,14.03
2019-05-23T04:11:50.691Z,12.47
2019-05-23T04:14:18.779Z,12.80
2019-05-23T04:16:46.739Z,13.25
2019-05-23T04:19:16.059Z,13.75
2019-05-23T04:21:44.402Z,13.18
2019-05-23T04:24:12.829Z,13.10
2019-05-23T04:26:40.651Z,13.98
2019-05-23T04:29:09.083Z,13.83
2019-05-23T04:31:37.029Z,14.00
2019-05-23T04:34:05.035Z,13.60
2019-05-23T04:36:33.285Z,14.40
2019-05-23T04:39:01.272Z,13.90
2019-05-23T04:41:30.583Z,15.65
2019-05-23T04:44:00.179Z,13.15
2019-05-23T04:46:28.536Z,13.78
2019-05-23T04:48:56.535Z,13.20
2019-05-23T04:51:25.700Z,13.43
2019-05-23T04:53:54.048Z,14.60
2019-05-23T04:56:22.121Z,14.90
2019-05-23T04:58:51.931Z,15.48
2019-05-23T05:01:20.718Z,16.00
2019-05-23T05:03:51.438Z,16.00
2019-05-23T05:06:19.869Z,16.05
2019-05-23T05:08:48.038Z,14.28
2019-05-23T05:11:16.614Z,16.37
2019-05-23T05:13:45.106Z,16.30
2019-05-23T05:16:13.604Z,17.15
2019-05-23T05:18:41.591Z,16.60
2019-05-23T05:21:10.181Z,16.00
2019-05-23T05:23:37.891Z,16.67
2019-05-23T05:26:09.912Z,17.17
2019-05-23T05:28:39.506Z,16.57
2019-05-23T05:31:07.786Z,17.12
2019-05-23T05:33:35.816Z,17.92
2019-05-23T05:36:03.749Z,18.52
2019-05-23T05:38:32.634Z,16.32
2019-05-23T05:41:02.496Z,17.25
2019-05-23T05:43:32.212Z,15.38
2019-05-23T05:46:00.579Z,15.28
2019-05-23T05:48:29.789Z,18.62
2019-05-23T05:50:57.902Z,16.65
2019-05-23T05:53:25.905Z,17.80
2019-05-23T05:55:53.775Z,18.77
2019-05-23T05:58:21.640Z,17.40
2019-05-23T06:00:56.817Z,17.70
2019-05-23T06:03:26.458Z,16.65
2019-05-23T06:06:02.498Z,18.10
2019-05-23T06:08:33.903Z,16.77
2019-05-23T06:11:04.939Z,17.40
2019-05-23T06:13:33.954Z,17.48
2019-05-23T06:16:04.316Z,17.55
2019-05-23T06:18:32.349Z,16.15
2019-05-23T06:21:01.909Z,19.02
2019-05-23T06:23:31.292Z,17.70
2019-05-23T06:26:00.366Z,17.40
2019-05-23T06:28:30.053Z,18.55
2019-05-23T06:30:59.348Z,17.65
2019-05-23T06:33:27.804Z,17.60
2019-05-23T06:35:57.723Z,17.00
2019-05-23T06:38:26.903Z,17.23
2019-05-23T06:40:55.206Z,17.95
2019-05-23T06:43:24.313Z,17.73
2019-05-23T06:45:52.226Z,16.52
2019-05-23T06:48:20.509Z,16.52
2019-05-23T06:50:48.616Z,16.95
2019-05-23T06:53:16.759Z,16.48
2019-05-23T06:55:44.562Z,18.52
2019-05-23T06:58:12.339Z,17.32
2019-05-23T07:00:40.506Z,16.82
2019-05-23T07:03:09.338Z,14.23
2019-05-23T07:05:37.561Z,17.37
2019-05-23T07:08:06.642Z,17.20
2019-05-23T07:10:34.753Z,15.38
2019-05-23T07:13:04.347Z,15.18
2019-05-23T07:15:32.559Z,16.90
2019-05-23T07:18:01.279Z,15.30
2019-05-23T07:20:29.889Z,16.20
2019-05-23T07:22:58.180Z,15.00
2019-05-23T07:25:26.882Z,14.10
2019-05-23T07:27:54.785Z,14.65
2019-05-23T07:30:25.100Z,14.30
2019-05-23T07:32:53.231Z,15.30
2019-05-23T07:35:21.814Z,15.58
2019-05-23T07:37:49.719Z,14.75
2019-05-23T07:40:17.556Z,14.95
2019-05-23T07:42:45.362Z,14.03
2019-05-23T07:45:17.114Z,14.30
2019-05-23T07:47:46.439Z,14.45
2019-05-23T07:50:14.646Z,12.00
2019-05-23T07:52:43.357Z,14.60
2019-05-23T07:55:20.039Z,12.55
2019-05-23T07:57:49.354Z,13.20
2019-05-23T08:00:23.494Z,12.55
2019-05-23T08:02:54.347Z,11.30
2019-05-23T08:05:24.463Z,10.25
2019-05-23T08:07:53.320Z,10.90
2019-05-23T08:10:33.258Z,10.88
2019-05-23T08:12:52.138Z,10.10
2019-05-23T08:15:20.143Z,11.28
2019-05-23T08:17:48.075Z,9.73
2019-05-23T08:20:16.851Z,10.63
2019-05-23T08:22:46.032Z,9.63
2019-05-23T08:25:13.994Z,9.90
2019-05-23T08:27:42.018Z,9.80
2019-05-23T08:30:10.965Z,9.95
2019-05-23T08:32:40.413Z,10.03
2019-05-23T08:35:08.883Z,10.43
2019-05-23T08:37:38.104Z,10.25
2019-05-23T08:40:06.616Z,10.32
2019-05-23T08:42:35.834Z,9.48
2019-05-23T08:45:06.444Z,9.55
2019-05-23T08:47:35.552Z,10.05
2019-05-23T08:50:04.389Z,10.45
2019-05-23T08:52:33.762Z,9.43
2019-05-23T08:55:06.436Z,8.23
2019-05-23T08:57:36.546Z,8.75
2019-05-23T09:00:04.601Z,6.60
2019-05-23T09:02:33.604Z,6.62
2019-05-23T09:05:06.493Z,6.00
2019-05-23T09:07:35.128Z,5.80
2019-05-23T09:10:04.420Z,8.03
2019-05-23T09:12:33.897Z,6.62
2019-05-23T09:15:04.669Z,6.67
2019-05-23T09:17:49.732Z,7.15
2019-05-23T09:20:03.725Z,5.95
2019-05-23T09:22:33.411Z,5.37
2019-05-23T09:25:01.332Z,6.50
2019-05-23T09:27:34.566Z,6.95
2019-05-23T09:30:02.076Z,6.22
2019-05-23T09:32:31.504Z,6.42
2019-05-23T09:34:59.331Z,6.33
2019-05-23T09:37:27.454Z,5.47
2019-05-23T09:39:55.603Z,5.90
2019-05-23T09:42:24.363Z,6.08
2019-05-23T09:44:52.225Z,5.28
2019-05-23T09:47:20.338Z,5.62
2019-05-23T09:49:55.594Z,6.55
2019-05-23T09:52:19.435Z,4.75
2019-05-23T09:54:48.168Z,6.45
2019-05-23T09:57:16.511Z,7.20
2019-05-23T09:59:44.994Z,7.20
2019-05-23T10:02:13.480Z,6.87
2019-05-23T10:04:41.954Z,6.45
2019-05-23T10:07:10.035Z,5.33
2019-05-23T10:09:38.751Z,6.70
2019-05-23T10:12:06.483Z,6.67
2019-05-23T10:14:35.627Z,5.20
2019-05-23T10:17:05.287Z,5.92
2019-05-23T10:19:33.413Z,5.53
2019-05-23T10:22:01.487Z,5.12
2019-05-23T10:24:30.620Z,4.92
2019-05-23T10:26:59.075Z,5.67
2019-05-23T10:29:27.090Z,4.92
2019-05-23T10:31:54.918Z,5.40
2019-05-23T10:34:22.830Z,5.35
2019-05-23T10:36:50.681Z,5.00
2019-05-23T10:39:19.242Z,5.05
2019-05-23T10:41:47.614Z,5.22
2019-05-23T10:44:15.574Z,4.75
2019-05-23T10:46:43.530Z,5.67
2019-05-23T10:49:11.437Z,5.33
2019-05-23T10:51:39.288Z,5.33
2019-05-23T10:54:07.758Z,5.95
2019-05-23T10:56:36.179Z,6.65
2019-05-23T10:59:04.597Z,5.78
2019-05-23T11:01:33.353Z,5.87
2019-05-23T11:04:02.247Z,6.20
2019-05-23T11:06:31.533Z,6.00
2019-05-23T11:08:59.774Z,5.83
2019-05-23T11:11:30.135Z,5.53
2019-05-23T11:13:58.368Z,5.67
2019-05-23T11:16:26.436Z,6.15
2019-05-23T11:18:55.409Z,6.50
2019-05-23T11:21:23.433Z,5.40
2019-05-23T11:23:53.287Z,5.25
2019-05-23T11:26:21.768Z,5.95
2019-05-23T11:28:49.724Z,5.50
2019-05-23T11:31:17.823Z,5.62
2019-05-23T11:33:45.557Z,5.12
2019-05-23T11:36:14.170Z,5.58
2019-05-23T11:38:42.639Z,6.50
2019-05-23T11:41:11.074Z,5.87
2019-05-23T11:43:40.059Z,6.20
2019-05-23T11:46:28.221Z,6.42
2019-05-23T11:48:57.621Z,6.03
2019-05-23T11:51:26.235Z,5.72
2019-05-23T11:54:07.138Z,5.25
2019-05-23T11:56:25.216Z,5.67
2019-05-23T11:59:00.632Z,5.33
2019-05-23T12:01:33.948Z,5.75
2019-05-23T12:04:23.317Z,4.97
2019-05-23T12:07:14.488Z,6.00
2019-05-23T12:09:43.911Z,5.20
2019-05-23T12:12:11.696Z,5.65
2019-05-23T12:14:40.132Z,5.30
2019-05-23T12:17:08.365Z,5.08
2019-05-23T12:19:36.271Z,4.95
2019-05-23T12:22:04.661Z,5.75
2019-05-23T12:24:35.640Z,5.33
2019-05-23T12:27:02.938Z,5.50
2019-05-23T12:29:31.400Z,4.40
2019-05-23T12:32:00.899Z,5.33
2019-05-23T12:34:29.260Z,5.60
2019-05-23T12:37:17.089Z,5.50
2019-05-23T12:39:27.318Z,4.77
2019-05-23T12:41:55.182Z,4.10
2019-05-23T12:44:23.496Z,4.58
2019-05-23T12:46:51.406Z,4.80
2019-05-23T12:49:30.264Z,5.07
2019-05-23T12:52:00.702Z,5.23
2019-05-23T12:54:30.382Z,4.83
2019-05-23T12:56:59.113Z,5.10
2019-05-23T12:59:27.111Z,4.80
2019-05-23T13:01:56.634Z,4.40
2019-05-23T13:04:25.415Z,4.77
2019-05-23T13:06:54.180Z,4.33
2019-05-23T13:09:22.628Z,4.90
2019-05-23T13:11:50.648Z,3.80
2019-05-23T13:14:19.090Z,3.83
2019-05-23T13:16:47.207Z,4.20
2019-05-23T13:19:15.361Z,4.07
2019-05-23T13:21:43.634Z,4.17
2019-05-23T13:24:11.540Z,4.03
2019-05-23T13:26:39.389Z,4.60
2019-05-23T13:29:07.502Z,4.60
2019-05-23T13:31:35.652Z,4.30
2019-05-23T13:34:03.807Z,3.60
2019-05-23T13:36:31.648Z,3.73
2019-05-23T13:38:59.590Z,3.70
2019-05-23T13:41:27.708Z,3.73
2019-05-23T13:43:55.715Z,3.70
2019-05-23T13:46:23.901Z,4.00
2019-05-23T13:48:51.791Z,4.13
2019-05-23T13:51:19.478Z,3.97
2019-05-23T13:53:47.295Z,3.53
2019-05-23T13:56:16.506Z,3.73
2019-05-23T13:58:44.649Z,3.43
2019-05-23T14:01:13.033Z,3.40
2019-05-23T14:03:41.948Z,3.63
2019-05-23T14:06:11.735Z,4.30
2019-05-23T14:08:42.799Z,4.00
2019-05-23T14:11:10.785Z,3.87
2019-05-23T14:13:39.005Z,3.37
2019-05-23T14:16:06.917Z,4.30
2019-05-23T14:18:36.532Z,4.30
2019-05-23T14:21:05.353Z,4.00
2019-05-23T14:23:33.423Z,4.07
2019-05-23T14:26:01.906Z,3.70
2019-05-23T14:28:31.436Z,3.50
2019-05-23T14:31:07.295Z,4.57
2019-05-23T14:33:46.181Z,4.17
2019-05-23T14:36:32.381Z,4.13
2019-05-23T14:39:02.822Z,4.30
2019-05-23T14:41:45.412Z,3.57
2019-05-23T14:44:14.389Z,4.23
2019-05-23T14:46:53.298Z,4.00
2019-05-23T14:49:29.309Z,3.60
2019-05-23T14:52:04.813Z,3.50
2019-05-23T14:54:43.033Z,3.60
2019-05-23T14:57:12.852Z,3.57
2019-05-23T14:59:41.870Z,3.50
2019-05-23T15:02:15.375Z,3.17
2019-05-23T15:04:43.917Z,3.40
2019-05-23T15:07:11.726Z,5.10
2019-05-23T15:09:39.630Z,3.67
2019-05-23T15:12:08.600Z,3.37
2019-05-23T15:14:36.497Z,3.00
2019-05-23T15:17:04.603Z,3.30
2019-05-23T15:19:44.067Z,3.13
2019-05-23T15:22:02.278Z,3.40
2019-05-23T15:24:30.905Z,3.33
2019-05-23T15:26:58.822Z,3.67
2019-05-23T15:29:29.171Z,3.83
2019-05-23T15:32:02.481Z,3.80
2019-05-23T15:34:26.086Z,3.77
2019-05-23T15:36:53.814Z,2.97
2019-05-23T15:39:22.347Z,3.03
2019-05-23T15:41:50.531Z,3.10
2019-05-23T15:44:27.177Z,3.40
2019-05-23T15:46:48.427Z,3.10
2019-05-23T15:49:16.663Z,3.90
2019-05-23T15:51:53.993Z,3.23
2019-05-23T15:54:30.327Z,2.90
2019-05-23T15:57:19.139Z,3.27
2019-05-23T16:00:08.352Z,3.20
2019-05-23T16:02:50.250Z,2.90
2019-05-23T16:05:26.396Z,2.90
2019-05-23T16:07:54.537Z,3.10
2019-05-23T16:10:23.989Z,3.10
2019-05-23T16:12:52.880Z,3.13
2019-05-23T16:15:20.643Z,3.00
2019-05-23T16:17:48.842Z,3.13
2019-05-23T16:20:17.230Z,3.20
2019-05-23T16:22:45.588Z,3.50
2019-05-23T16:25:13.411Z,3.20
2019-05-23T16:27:41.638Z,2.90
2019-05-23T16:30:09.951Z,3.00
2019-05-23T16:32:38.279Z,2.93
2019-05-23T16:35:06.183Z,3.07
2019-05-23T16:37:34.045Z,2.80
2019-05-23T16:40:01.865Z,2.90
2019-05-23T16:42:31.410Z,2.73
2019-05-23T16:44:59.144Z,3.20
2019-05-23T16:47:27.288Z,3.00
2019-05-23T16:49:55.337Z,3.20
2019-05-23T16:52:23.336Z,3.27
2019-05-23T16:54:53.075Z,3.60
2019-05-23T16:57:58.767Z,3.57
2019-05-23T17:00:59.725Z,3.37
2019-05-23T17:03:38.965Z,3.23
2019-05-23T17:06:22.404Z,3.40
2019-05-23T17:09:10.215Z,3.00
2019-05-23T17:11:45.347Z,3.20
2019-05-23T17:14:25.849Z,2.70
2019-05-23T17:17:39.519Z,3.60
2019-05-23T17:19:57.651Z,3.17
2019-05-23T17:22:38.306Z,3.50
2019-05-23T17:25:21.214Z,3.10
2019-05-23T17:28:16.383Z,3.30
2019-05-23T17:30:58.866Z,3.20
2019-05-23T17:33:28.296Z,3.27
2019-05-23T17:35:56.317Z,4.15
2019-05-23T17:38:24.726Z,4.00
2019-05-23T17:40:53.338Z,3.60
2019-05-23T17:43:21.446Z,3.60
2019-05-23T17:45:51.070Z,3.20
2019-05-23T17:48:18.913Z,3.40
2019-05-23T17:50:46.895Z,3.17
2019-05-23T17:53:14.774Z,3.70
2019-05-23T17:55:43.076Z,4.35
2019-05-23T17:58:10.911Z,3.60
2019-05-23T18:00:40.434Z,4.42
2019-05-23T18:03:10.838Z,3.92
2019-05-23T18:05:38.944Z,5.05
2019-05-23T18:08:08.065Z,4.40
2019-05-23T18:10:44.705Z,4.72
2019-05-23T18:13:07.380Z,5.65
2019-05-23T18:15:35.839Z,5.15
2019-05-23T18:18:04.601Z,4.67
2019-05-23T18:20:34.402Z,4.00
2019-05-23T18:23:04.005Z,3.70
2019-05-23T18:25:33.289Z,4.03
2019-05-23T18:28:03.170Z,3.52
2019-05-23T18:30:36.565Z,4.30
2019-05-23T18:33:08.085Z,3.70
2019-05-23T18:35:37.633Z,3.65
2019-05-23T18:38:05.847Z,4.58
2019-05-23T18:40:34.318Z,4.05
2019-05-23T18:43:02.457Z,3.60
2019-05-23T18:45:32.656Z,4.25
2019-05-23T18:48:01.378Z,4.40
2019-05-23T18:50:30.382Z,4.35
2019-05-23T18:52:58.908Z,4.10
2019-05-23T18:55:27.413Z,4.90
2019-05-23T18:57:55.486Z,5.20
2019-05-23T19:01:01.038Z,4.17
2019-05-23T19:03:30.682Z,5.20
2019-05-23T19:05:59.810Z,4.70
2019-05-23T19:08:27.791Z,5.03
2019-05-23T19:10:55.662Z,4.40
2019-05-23T19:13:26.556Z,4.30
2019-05-23T19:15:53.660Z,4.60
2019-05-23T19:18:22.446Z,4.70
2019-05-23T19:20:54.892Z,5.20
2019-05-23T19:23:23.748Z,4.67
2019-05-23T19:25:52.430Z,4.40
2019-05-23T19:28:20.802Z,4.85
2019-05-23T19:30:50.356Z,4.35
2019-05-23T19:33:19.649Z,4.75
2019-05-23T19:35:48.519Z,4.35
2019-05-23T19:38:16.481Z,4.45
2019-05-23T19:40:44.409Z,4.53
2019-05-23T19:43:14.509Z,4.40
2019-05-23T19:45:43.212Z,4.12
2019-05-23T19:48:11.111Z,4.65
2019-05-23T19:50:40.756Z,3.83
2019-05-23T19:53:10.210Z,4.50
2019-05-23T19:55:40.228Z,4.25
2019-05-23T19:58:09.109Z,4.42
2019-05-23T20:00:38.271Z,4.30
2019-05-23T20:03:09.010Z,4.45
2019-05-23T20:05:38.868Z,3.90
2019-05-23T20:08:08.602Z,4.92
2019-05-23T20:10:37.234Z,5.30
2019-05-23T20:13:06.039Z,5.20
2019-05-23T20:15:33.965Z,4.72
2019-05-23T20:18:02.061Z,4.67
2019-05-23T20:20:30.820Z,5.08
2019-05-23T20:22:59.592Z,4.80
2019-05-23T20:25:28.692Z,5.15
2019-05-23T20:28:09.326Z,4.78
2019-05-23T20:30:55.473Z,4.85
2019-05-23T20:33:25.051Z,5.10
2019-05-23T20:35:52.889Z,4.33
2019-05-23T20:38:36.101Z,5.15
2019-05-23T20:41:04.158Z,5.30
2019-05-23T20:43:32.045Z,5.30
2019-05-23T20:45:59.885Z,4.95
2019-05-23T20:48:28.545Z,4.80
2019-05-23T20:50:57.107Z,4.65
2019-05-23T20:53:25.043Z,4.60
2019-05-23T20:55:52.880Z,4.30
2019-05-23T20:58:20.698Z,4.62
2019-05-23T21:01:06.634Z,4.40
2019-05-23T21:03:36.480Z,4.53
2019-05-23T21:06:04.819Z,4.55
2019-05-23T21:08:32.967Z,5.20
2019-05-23T21:11:00.983Z,4.85
2019-05-23T21:13:28.890Z,4.65
2019-05-23T21:15:56.784Z,4.67
2019-05-23T21:18:24.508Z,4.42
2019-05-23T21:20:52.365Z,4.80
2019-05-23T21:23:20.286Z,4.75
2019-05-23T21:26:08.218Z,4.85
2019-05-23T21:28:36.251Z,4.58
2019-05-23T21:31:07.207Z,4.97
2019-05-23T21:33:36.516Z,5.30
2019-05-23T21:36:04.358Z,4.90
2019-05-23T21:38:32.155Z,4.90
2019-05-23T21:41:03.407Z,5.22
2019-05-23T21:43:30.471Z,5.05
2019-05-23T21:45:58.375Z,5.15
2019-05-23T21:48:26.126Z,5.00
2019-05-23T21:50:53.915Z,5.80
2019-05-23T21:53:30.504Z,5.60
2019-05-23T21:55:58.350Z,5.20
2019-05-23T21:58:26.246Z,5.60
2019-05-23T22:01:33.124Z,5.10
2019-05-23T22:04:12.623Z,5.42
2019-05-23T22:06:44.571Z,6.17
2019-05-23T22:09:14.910Z,5.62
2019-05-23T22:11:42.474Z,6.03
2019-05-23T22:14:13.258Z,5.50
2019-05-23T22:16:41.190Z,5.40
2019-05-23T22:19:11.925Z,5.53
2019-05-23T22:21:41.322Z,6.05
2019-05-23T22:24:09.310Z,5.10
2019-05-23T22:26:46.186Z,5.72
2019-05-23T22:29:13.951Z,6.85
2019-05-23T22:31:42.150Z,6.00
2019-05-23T22:34:32.398Z,6.05
2019-05-23T22:37:01.964Z,6.15
2019-05-23T22:39:31.306Z,6.17
2019-05-23T22:41:59.131Z,6.50
2019-05-23T22:44:27.107Z,6.20
2019-05-23T22:46:55.010Z,5.55
2019-05-23T22:49:22.782Z,6.55
2019-05-23T22:51:50.508Z,6.17
2019-05-23T22:54:18.297Z,6.03
2019-05-23T22:56:45.888Z,6.53
2019-05-23T22:59:13.700Z,6.55
2019-05-23T23:01:41.421Z,6.42
2019-05-23T23:04:12.106Z,5.75
2019-05-23T23:06:39.833Z,5.70
2019-05-23T23:09:07.733Z,6.20
2019-05-23T23:11:35.456Z,6.40
2019-05-23T23:14:03.339Z,6.22
2019-05-23T23:16:31.056Z,5.83
2019-05-23T23:18:58.810Z,6.15
2019-05-23T23:21:26.529Z,5.97
2019-05-23T23:23:54.497Z,6.60
2019-05-23T23:26:22.209Z,6.70
2019-05-23T23:28:50.056Z,7.40
2019-05-23T23:31:32.886Z,7.55
2019-05-23T23:34:00.666Z,7.70
2019-05-23T23:36:28.351Z,7.45
2019-05-23T23:38:56.105Z,7.37
2019-05-23T23:41:23.875Z,7.30
2019-05-23T23:43:59.210Z,6.70
2019-05-23T23:46:39.529Z,6.83
2019-05-23T23:49:27.462Z,7.40
2019-05-23T23:52:15.087Z,7.05
2019-05-23T23:55:02.756Z,7.40
2019-05-23T23:57:52.479Z,6.92
